Time;durP1;ratioP1;P1;durP2;ratioP2;P2;SDS_P1;SDS_P2;PMS_P1;PMS_P2;Temp;Humidity;BMP_temperature;BMP_pressure;BME280_temperature;BME280_humidity;BME280_pressure;Samples;Min_cycle;Max_cycle;Signal;HPM_P1;HPM_P2
2022/10/19 00:00:30;;;;;;;78.82;47.25;;;;;;;;;;5029588;28;20025;-62
2022/10/19 00:02:56;;;;;;;68.90;43.95;;;;;;;;;;5022688;28;20034;-60
2022/10/19 00:05:22;;;;;;;66.05;43.28;;;;;;;;;;5020322;28;20022;-61
2022/10/19 00:07:48;;;;;;;66.90;47.83;;;;;;;;;;5016750;28;20095;-60
2022/10/19 00:10:14;;;;;;;71.80;45.75;;;;;;;;;;5032393;28;20056;-60
2022/10/19 00:12:40;;;;;;;74.85;47.47;;;;;;;;;;5025641;28;20041;-62
2022/10/19 00:15:06;;;;;;;73.97;48.25;;;;;;;;;;5033468;28;20032;-60
2022/10/19 00:17:34;;;;;;;78.63;47.70;;;;;;;;;;5035022;28;20029;-60
2022/10/19 00:20:00;;;;;;;76.32;48.45;;;;;;;;;;5034868;28;20291;-60
2022/10/19 00:22:26;;;;;;;67.63;45.83;;;;;;;;;;5028844;28;20033;-60
2022/10/19 00:24:52;;;;;;;74.50;47.22;;;;;;;;;;5015346;28;20108;-61
2022/10/19 00:27:18;;;;;;;77.72;49.08;;;;;;;;;;5016509;28;20030;-62
2022/10/19 00:29:44;;;;;;;70.10;46.00;;;;;;;;;;5015889;28;20037;-62
2022/10/19 00:32:10;;;;;;;89.68;52.92;;;;;;;;;;5017037;28;20056;-61
2022/10/19 00:34:36;;;;;;;66.78;45.03;;;;;;;;;;5015132;28;20053;-61
2022/10/19 00:37:02;;;;;;;73.40;47.97;;;;;;;;;;5026481;28;20026;-61
2022/10/19 00:39:28;;;;;;;62.95;43.13;;;;;;;;;;5016735;28;20034;-60
2022/10/19 00:41:54;;;;;;;68.57;46.33;;;;;;;;;;5017994;28;20043;-61
2022/10/19 00:44:20;;;;;;;68.63;46.95;;;;;;;;;;5018428;28;20065;-62
2022/10/19 00:46:47;;;;;;;79.88;51.55;;;;;;;;;;5028144;28;20502;-61
2022/10/19 00:49:13;;;;;;;;;;;;;;;;;;5031951;28;20072;-60
2022/10/19 00:51:41;;;;;;;66.78;47.88;;;;;;;;;;5018880;28;19949;-61
2022/10/19 00:54:07;;;;;;;75.28;49.13;;;;;;;;;;5030654;28;20489;-61
2022/10/19 00:56:34;;;;;;;71.53;48.08;;;;;;;;;;5024519;28;20025;-60
2022/10/19 00:59:02;;;;;;;71.68;47.40;;;;;;;;;;5019121;28;20033;-60
2022/10/19 01:01:28;;;;;;;72.32;49.13;;;;;;;;;;5015892;28;20041;-60
2022/10/19 01:03:54;;;;;;;65.70;42.13;;;;;;;;;;5026651;28;20402;-60
2022/10/19 01:06:20;;;;;;;62.00;41.83;;;;;;;;;;5029832;28;20064;-61
2022/10/19 01:08:46;;;;;;;72.43;46.33;;;;;;;;;;5034361;28;20428;-61
2022/10/19 01:11:38;;;;;;;59.90;41.97;;;;;;;;;;5034171;28;20037;-61
2022/10/19 01:14:23;;;;;;;76.13;44.28;;;;;;;;;;5019306;28;20065;-62
2022/10/19 01:16:53;;;;;;;61.50;41.30;;;;;;;;;;5026350;28;20108;-61
2022/10/19 01:19:34;;;;;;;62.60;42.17;;;;;;;;;;5034031;28;20025;-61
2022/10/19 01:22:17;;;;;;;55.63;38.17;;;;;;;;;;5033201;28;20107;-58
2022/10/19 01:24:50;;;;;;;71.05;45.63;;;;;;;;;;4994957;28;20099;-61
2022/10/19 01:27:16;;;;;;;61.70;42.70;;;;;;;;;;5024558;28;20041;-60
2022/10/19 01:29:57;;;;;;;68.65;46.20;;;;;;;;;;5014127;28;20038;-60
2022/10/19 01:32:29;;;;;;;78.72;47.30;;;;;;;;;;5013870;28;20034;-61
2022/10/19 01:35:05;;;;;;;64.80;43.63;;;;;;;;;;5025256;28;20585;-61
2022/10/19 01:37:34;;;;;;;58.10;37.97;;;;;;;;;;5023629;28;20025;-61
2022/10/19 01:40:07;;;;;;;49.53;31.83;;;;;;;;;;5033677;28;20463;-60
2022/10/19 01:42:36;;;;;;;58.85;36.35;;;;;;;;;;5030673;28;20113;-60
2022/10/19 01:45:02;;;;;;;58.72;38.80;;;;;;;;;;5057217;22;20034;-60
2022/10/19 01:47:46;;;;;;;61.13;40.88;;;;;;;;;;5026576;28;20022;-59
2022/10/19 01:50:15;;;;;;;60.53;39.65;;;;;;;;;;5027924;28;20057;-60
2022/10/19 01:52:42;;;;;;;61.78;41.40;;;;;;;;;;5021960;28;20117;-60
2022/10/19 01:55:10;;;;;;;59.08;39.80;;;;;;;;;;5013416;28;20041;-60
2022/10/19 01:57:38;;;;;;;51.08;36.75;;;;;;;;;;5013325;28;20022;-59
2022/10/19 02:00:06;;;;;;;58.92;38.78;;;;;;;;;;5011845;28;20390;-59
2022/10/19 02:02:33;;;;;;;55.50;38.83;;;;;;;;;;5013640;28;20395;-60
2022/10/19 02:05:00;;;;;;;51.30;34.88;;;;;;;;;;5010091;28;20486;-60
2022/10/19 02:07:26;;;;;;;33.35;27.05;;;;;;;;;;5013262;28;20045;-60
2022/10/19 02:09:52;;;;;;;50.33;35.95;;;;;;;;;;5012871;28;20038;-59
2022/10/19 02:12:20;;;;;;;48.53;36.30;;;;;;;;;;5013245;28;20030;-60
2022/10/19 02:14:49;;;;;;;41.53;32.10;;;;;;;;;;5012917;28;20034;-59
2022/10/19 02:17:18;;;;;;;38.67;30.23;;;;;;;;;;5011692;28;20502;-59
2022/10/19 02:19:44;;;;;;;37.47;27.92;;;;;;;;;;5005870;28;20033;-59
2022/10/19 02:22:11;;;;;;;37.72;29.33;;;;;;;;;;5012894;28;20040;-60
2022/10/19 02:24:37;;;;;;;38.55;27.60;;;;;;;;;;5012854;28;20483;-60
2022/10/19 02:27:04;;;;;;;35.67;27.60;;;;;;;;;;5013000;28;20032;-59
2022/10/19 02:29:30;;;;;;;;;;;;;;;;;;5011725;28;20084;-60
2022/10/19 02:31:56;;;;;;;41.70;27.73;;;;;;;;;;5012696;28;19913;-60
2022/10/19 02:34:22;;;;;;;38.78;28.67;;;;;;;;;;5021358;28;20100;-59
2022/10/19 02:36:49;;;;;;;40.22;29.80;;;;;;;;;;5014363;28;20034;-60
2022/10/19 02:39:15;;;;;;;43.10;29.57;;;;;;;;;;5011578;28;20084;-60
2022/10/19 02:41:50;;;;;;;49.78;32.80;;;;;;;;;;5012166;28;20633;-59
2022/10/19 02:44:20;;;;;;;45.00;30.92;;;;;;;;;;5000639;28;20049;-59
2022/10/19 02:46:50;;;;;;;46.97;32.15;;;;;;;;;;5012649;28;20502;-59
2022/10/19 02:49:16;;;;;;;46.30;32.13;;;;;;;;;;5011870;28;20112;-59
2022/10/19 02:51:54;;;;;;;49.00;36.17;;;;;;;;;;5012250;28;20032;-60
2022/10/19 02:54:21;;;;;;;50.35;35.50;;;;;;;;;;5012652;28;20076;-59
2022/10/19 02:56:47;;;;;;;64.43;41.97;;;;;;;;;;5012364;28;20026;-59
2022/10/19 02:59:13;;;;;;;54.65;38.08;;;;;;;;;;5012243;28;20030;-59
2022/10/19 03:01:39;;;;;;;53.63;36.10;;;;;;;;;;5011750;28;20055;-59
2022/10/19 03:04:05;;;;;;;49.03;33.25;;;;;;;;;;5011018;28;20558;-60
2022/10/19 03:06:31;;;;;;;55.85;37.20;;;;;;;;;;5012049;28;20110;-59
2022/10/19 03:08:57;;;;;;;55.03;37.50;;;;;;;;;;5012339;28;20037;-59
2022/10/19 03:11:23;;;;;;;51.55;36.50;;;;;;;;;;5012153;28;20080;-60
2022/10/19 03:13:49;;;;;;;56.78;39.40;;;;;;;;;;5014197;28;20021;-60
2022/10/19 03:16:15;;;;;;;56.67;38.83;;;;;;;;;;5031908;28;20075;-60
2022/10/19 03:18:41;;;;;;;56.75;38.78;;;;;;;;;;5021416;28;20076;-60
2022/10/19 03:21:12;;;;;;;54.20;37.60;;;;;;;;;;5011750;28;20053;-59
2022/10/19 03:23:38;;;;;;;73.43;43.80;;;;;;;;;;4999627;28;20101;-60
2022/10/19 03:26:05;;;;;;;65.25;43.10;;;;;;;;;;5006770;28;20088;-60
2022/10/19 03:28:31;;;;;;;61.55;40.75;;;;;;;;;;5011554;28;20564;-60
2022/10/19 03:30:57;;;;;;;52.00;35.80;;;;;;;;;;5011650;28;20034;-59
2022/10/19 03:33:23;;;;;;;54.80;35.28;;;;;;;;;;5011665;28;20029;-59
2022/10/19 03:35:49;;;;;;;50.43;35.30;;;;;;;;;;5011799;28;20025;-59
2022/10/19 03:38:15;;;;;;;46.80;34.85;;;;;;;;;;5011506;28;20026;-60
2022/10/19 03:40:41;;;;;;;50.33;35.95;;;;;;;;;;5011820;28;20030;-59
2022/10/19 03:43:07;;;;;;;44.13;32.03;;;;;;;;;;5011597;28;20036;-59
2022/10/19 03:45:34;;;;;;;43.78;30.48;;;;;;;;;;5010295;28;20097;-60
2022/10/19 03:48:00;;;;;;;49.78;33.70;;;;;;;;;;5011431;28;20028;-59
2022/10/19 03:50:26;;;;;;;48.80;35.58;;;;;;;;;;5011205;28;20061;-58
2022/10/19 03:52:52;;;;;;;41.28;30.65;;;;;;;;;;5011352;28;20038;-60
2022/10/19 03:55:18;;;;;;;42.35;32.58;;;;;;;;;;5011768;28;20052;-59
2022/10/19 03:57:44;;;;;;;47.78;32.70;;;;;;;;;;5012007;28;20030;-58
2022/10/19 04:00:10;;;;;;;46.17;31.37;;;;;;;;;;5011441;28;20113;-58
2022/10/19 04:02:36;;;;;;;41.13;30.27;;;;;;;;;;5012025;28;20026;-57
2022/10/19 04:05:02;;;;;;;44.25;31.05;;;;;;;;;;5010492;28;20269;-59
2022/10/19 04:07:28;;;;;;;50.17;32.15;;;;;;;;;;5011796;28;20482;-58
2022/10/19 04:09:54;;;;;;;48.00;34.22;;;;;;;;;;5011572;28;20034;-58
2022/10/19 04:12:20;;;;;;;71.05;35.60;;;;;;;;;;5011675;28;20077;-59
2022/10/19 04:14:47;;;;;;;50.05;35.13;;;;;;;;;;5011546;28;20075;-58
2022/10/19 04:17:13;;;;;;;53.03;37.92;;;;;;;;;;5011668;28;20101;-57
2022/10/19 04:19:39;;;;;;;54.25;39.45;;;;;;;;;;5011581;28;20026;-58
2022/10/19 04:22:05;;;;;;;48.70;37.50;;;;;;;;;;5011626;28;20034;-59
2022/10/19 04:24:31;;;;;;;52.10;38.75;;;;;;;;;;5011559;28;20037;-59
2022/10/19 04:26:57;;;;;;;48.83;36.53;;;;;;;;;;5010229;28;20055;-58
2022/10/19 04:29:24;;;;;;;49.67;35.78;;;;;;;;;;5011853;28;20033;-57
2022/10/19 04:31:51;;;;;;;50.22;36.25;;;;;;;;;;5011737;28;20399;-58
2022/10/19 04:34:17;;;;;;;49.45;35.70;;;;;;;;;;5010243;28;20036;-58
2022/10/19 04:36:43;;;;;;;42.97;32.58;;;;;;;;;;5011598;28;20097;-59
2022/10/19 04:39:10;;;;;;;38.92;30.88;;;;;;;;;;5011310;28;20033;-58
2022/10/19 04:41:37;;;;;;;39.47;32.50;;;;;;;;;;5011442;28;20379;-58
2022/10/19 04:44:03;;;;;;;;;;;;;;;;;;5011652;28;20046;-59
2022/10/19 04:46:29;;;;;;;52.97;32.17;;;;;;;;;;5010044;28;19906;-58
2022/10/19 04:48:56;;;;;;;46.67;34.92;;;;;;;;;;5011307;28;20034;-59
2022/10/19 04:51:22;;;;;;;44.78;35.05;;;;;;;;;;5013627;28;20030;-58
2022/10/19 04:53:49;;;;;;;43.95;32.50;;;;;;;;;;5014891;28;20029;-58
2022/10/19 04:56:16;;;;;;;53.13;37.13;;;;;;;;;;5014782;28;20399;-55
2022/10/19 04:58:42;;;;;;;43.58;34.03;;;;;;;;;;5013385;28;20557;-58
2022/10/19 05:01:13;;;;;;;53.03;34.83;;;;;;;;;;5013706;28;20040;-58
2022/10/19 05:03:39;;;;;;;42.00;31.80;;;;;;;;;;5014717;28;20057;-56
2022/10/19 05:06:06;;;;;;;39.08;31.10;;;;;;;;;;5014661;28;20030;-58
2022/10/19 05:08:32;;;;;;;47.45;35.08;;;;;;;;;;5013280;28;20041;-59
2022/10/19 05:11:05;;;;;;;55.63;38.97;;;;;;;;;;5014390;28;20112;-59
2022/10/19 05:13:32;;;;;;;52.90;37.80;;;;;;;;;;5014761;28;20094;-58
2022/10/19 05:16:01;;;;;;;51.55;36.08;;;;;;;;;;5014602;28;20093;-58
2022/10/19 05:18:28;;;;;;;44.30;33.00;;;;;;;;;;5014326;28;20486;-59
2022/10/19 05:21:04;;;;;;;38.92;31.17;;;;;;;;;;5014419;28;20022;-59
2022/10/19 05:23:30;;;;;;;43.22;32.65;;;;;;;;;;5014130;28;20026;-58
2022/10/19 05:26:03;;;;;;;53.97;37.40;;;;;;;;;;5014336;28;20022;-58
2022/10/19 05:28:30;;;;;;;63.83;39.72;;;;;;;;;;5014240;28;20022;-58
2022/10/19 05:30:56;;;;;;;55.33;37.25;;;;;;;;;;5014175;28;20065;-58
2022/10/19 05:33:22;;;;;;;69.57;42.90;;;;;;;;;;5014236;28;20026;-59
2022/10/19 05:35:48;;;;;;;64.35;42.78;;;;;;;;;;5014541;28;20072;-58
2022/10/19 05:38:14;;;;;;;62.22;40.58;;;;;;;;;;5013920;28;20036;-58
2022/10/19 05:40:44;;;;;;;57.22;38.38;;;;;;;;;;5014264;28;20021;-60
2022/10/19 05:43:10;;;;;;;59.00;37.10;;;;;;;;;;5014419;28;20022;-59
2022/10/19 05:45:36;;;;;;;52.53;36.10;;;;;;;;;;5014296;28;20422;-60
2022/10/19 05:48:02;;;;;;;74.90;42.95;;;;;;;;;;5013996;28;20026;-59
2022/10/19 05:50:28;;;;;;;62.05;40.05;;;;;;;;;;5013584;28;20029;-59
2022/10/19 05:52:54;;;;;;;60.33;43.80;;;;;;;;;;5013694;28;20033;-59
2022/10/19 05:55:20;;;;;;;73.75;43.63;;;;;;;;;;5013775;28;20022;-59
2022/10/19 05:57:46;;;;;;;66.30;42.40;;;;;;;;;;5013764;28;20040;-59
2022/10/19 06:00:12;;;;;;;65.95;45.40;;;;;;;;;;5013513;28;20022;-59
2022/10/19 06:02:38;;;;;;;71.05;47.03;;;;;;;;;;5013405;28;20033;-58
2022/10/19 06:05:04;;;;;;;64.88;45.10;;;;;;;;;;5013361;28;20033;-59
2022/10/19 06:07:30;;;;;;;61.92;41.30;;;;;;;;;;5013825;28;20026;-59
2022/10/19 06:09:56;;;;;;;60.88;42.67;;;;;;;;;;5012316;28;20034;-59
2022/10/19 06:12:22;;;;;;;60.45;42.70;;;;;;;;;;5013564;28;20109;-59
2022/10/19 06:14:52;;;;;;;57.05;42.00;;;;;;;;;;5013295;28;20113;-58
2022/10/19 06:17:18;;;;;;;60.70;40.83;;;;;;;;;;5013439;28;20022;-59
2022/10/19 06:19:44;;;;;;;54.30;40.85;;;;;;;;;;5011950;28;20029;-59
2022/10/19 06:22:10;;;;;;;62.03;41.17;;;;;;;;;;5013421;28;20030;-59
2022/10/19 06:24:36;;;;;;;59.92;39.55;;;;;;;;;;5013190;28;20053;-59
2022/10/19 06:27:02;;;;;;;59.88;43.05;;;;;;;;;;5013197;28;20029;-58
2022/10/19 06:29:28;;;;;;;59.92;41.35;;;;;;;;;;5011745;28;20041;-59
2022/10/19 06:31:55;;;;;;;60.72;41.20;;;;;;;;;;5012983;28;20026;-58
2022/10/19 06:34:21;;;;;;;60.35;41.15;;;;;;;;;;5012866;28;20018;-59
2022/10/19 06:36:47;;;;;;;68.93;46.33;;;;;;;;;;5011705;28;20026;-59
2022/10/19 06:39:13;;;;;;;65.13;43.17;;;;;;;;;;5011673;28;20033;-58
2022/10/19 06:41:39;;;;;;;65.82;44.28;;;;;;;;;;5012962;28;20034;-59
2022/10/19 06:44:05;;;;;;;71.05;48.28;;;;;;;;;;5012697;28;20044;-59
2022/10/19 06:46:32;;;;;;;73.95;48.58;;;;;;;;;;5012841;28;20105;-58
2022/10/19 06:49:00;;;;;;;73.38;48.15;;;;;;;;;;5011300;28;20487;-59
2022/10/19 06:51:26;;;;;;;69.28;46.47;;;;;;;;;;5012927;28;20040;-59
2022/10/19 06:53:53;;;;;;;71.60;50.13;;;;;;;;;;5012741;28;20560;-58
2022/10/19 06:56:19;;;;;;;73.37;48.30;;;;;;;;;;5012701;28;20026;-58
2022/10/19 06:58:45;;;;;;;70.07;47.75;;;;;;;;;;5012449;28;20022;-59
2022/10/19 07:01:12;;;;;;;70.88;48.30;;;;;;;;;;5013006;28;20022;-59
2022/10/19 07:03:39;;;;;;;74.85;49.20;;;;;;;;;;5012431;28;20053;-59
2022/10/19 07:06:07;;;;;;;71.82;48.47;;;;;;;;;;5012580;28;20030;-58
2022/10/19 07:08:33;;;;;;;76.55;50.72;;;;;;;;;;5012419;28;20477;-59
2022/10/19 07:11:00;;;;;;;70.55;47.22;;;;;;;;;;5012331;28;20072;-59
2022/10/19 07:13:27;;;;;;;70.85;47.25;;;;;;;;;;5011668;28;20049;-59
2022/10/19 07:15:57;;;;;;;77.85;49.17;;;;;;;;;;5010947;28;20045;-58
2022/10/19 07:18:23;;;;;;;70.18;46.45;;;;;;;;;;5012139;28;20053;-59
2022/10/19 07:20:56;;;;;;;67.85;45.50;;;;;;;;;;5012336;28;20093;-59
2022/10/19 07:23:23;;;;;;;77.07;48.33;;;;;;;;;;5012308;28;20049;-58
2022/10/19 07:25:51;;;;;;;74.33;47.70;;;;;;;;;;5012369;28;20100;-65
2022/10/19 07:28:17;;;;;;;73.60;47.42;;;;;;;;;;5012019;28;20292;-65
2022/10/19 07:30:43;;;;;;;70.72;44.40;;;;;;;;;;5012065;28;20064;-65
2022/10/19 07:33:09;;;;;;;75.03;47.88;;;;;;;;;;5011089;28;20045;-65
2022/10/19 07:35:35;;;;;;;68.50;45.58;;;;;;;;;;5010848;28;20029;-65
2022/10/19 07:38:02;;;;;;;72.10;47.40;;;;;;;;;;5012124;28;20097;-66
2022/10/19 07:40:28;;;;;;;66.63;42.40;;;;;;;;;;5011969;28;20026;-66
2022/10/19 07:42:54;;;;;;;66.43;44.33;;;;;;;;;;5011864;28;20040;-66
2022/10/19 07:45:20;;;;;;;62.07;42.47;;;;;;;;;;5069152;22;20508;-54
2022/10/19 07:47:46;;;;;;;61.40;42.00;;;;;;;;;;5051507;28;20124;-57
2022/10/19 07:50:12;;;;;;;61.88;41.75;;;;;;;;;;5051459;28;20056;-57
2022/10/19 07:52:38;;;;;;;59.83;40.78;;;;;;;;;;5051644;28;20029;-54
2022/10/19 07:55:04;;;;;;;59.10;42.20;;;;;;;;;;5051466;28;20028;-57
2022/10/19 07:57:30;;;;;;;63.20;43.37;;;;;;;;;;5051455;28;20017;-54
2022/10/19 07:59:56;;;;;;;58.47;39.22;;;;;;;;;;5051255;28;20021;-57
2022/10/19 08:02:22;;;;;;;62.42;40.03;;;;;;;;;;5051500;28;20055;-55
2022/10/19 08:04:48;;;;;;;55.53;40.38;;;;;;;;;;5051403;28;20446;-55
2022/10/19 08:07:14;;;;;;;62.45;39.80;;;;;;;;;;5051440;28;20474;-56
2022/10/19 08:09:40;;;;;;;63.35;40.78;;;;;;;;;;5051288;28;20488;-56
2022/10/19 08:12:06;;;;;;;54.47;36.30;;;;;;;;;;5051123;28;20083;-57
2022/10/19 08:14:32;;;;;;;49.45;35.22;;;;;;;;;;5051469;28;20017;-57
2022/10/19 08:16:58;;;;;;;53.97;36.08;;;;;;;;;;5051325;28;20025;-56
2022/10/19 08:19:24;;;;;;;50.95;35.47;;;;;;;;;;5051226;28;20435;-55
2022/10/19 08:21:51;;;;;;;44.70;34.65;;;;;;;;;;5051261;28;20040;-56
2022/10/19 08:24:18;;;;;;;54.10;37.15;;;;;;;;;;5051995;28;20052;-54
2022/10/19 08:26:44;;;;;;;50.55;35.67;;;;;;;;;;5055127;28;20100;-54
2022/10/19 08:29:18;;;;;;;47.45;34.50;;;;;;;;;;5055262;28;20033;-56
2022/10/19 08:31:44;;;;;;;50.08;34.97;;;;;;;;;;5055101;28;20056;-56
2022/10/19 08:34:11;;;;;;;49.47;35.72;;;;;;;;;;5055028;28;20032;-57
2022/10/19 08:36:37;;;;;;;54.42;34.63;;;;;;;;;;5055003;28;20170;-55
2022/10/19 08:39:04;;;;;;;48.90;36.47;;;;;;;;;;5054864;28;20028;-56
2022/10/19 08:41:30;;;;;;;;;;;;;;;;;;5055266;28;20257;-56
2022/10/19 08:43:59;;;;;;;54.17;35.13;;;;;;;;;;5054781;28;20304;-53
2022/10/19 08:46:36;;;;;;;55.33;36.53;;;;;;;;;;5054807;28;20040;-54
2022/10/19 08:49:02;;;;;;;56.90;38.60;;;;;;;;;;5054781;28;20032;-56
2022/10/19 08:51:31;;;;;;;54.95;38.33;;;;;;;;;;5054696;28;20722;-53
2022/10/19 08:53:59;;;;;;;53.35;36.78;;;;;;;;;;5054527;28;20029;-52
2022/10/19 08:56:24;;;;;;;;;;;;;;;;;;5053797;28;20024;-52
2022/10/19 08:58:56;;;;;;;55.17;38.72;;;;;;;;;;5054513;28;19987;-52
2022/10/19 09:01:22;;;;;;;51.72;37.83;;;;;;;;;;5054584;28;20025;-56
2022/10/19 09:03:52;;;;;;;56.38;38.83;;;;;;;;;;5054501;28;20059;-54
2022/10/19 09:06:31;;;;;;;56.08;37.33;;;;;;;;;;5054350;28;20481;-55
2022/10/19 09:08:57;;;;;;;55.88;37.22;;;;;;;;;;5054291;28;20025;-57
2022/10/19 09:11:38;;;;;;;60.95;39.13;;;;;;;;;;5054265;28;20067;-55
2022/10/19 09:14:04;;;;;;;54.30;37.67;;;;;;;;;;5053168;28;20068;-54
2022/10/19 09:16:31;;;;;;;56.92;39.65;;;;;;;;;;5054162;28;20103;-56
2022/10/19 09:18:57;;;;;;;52.25;37.25;;;;;;;;;;5053961;28;20029;-54
2022/10/19 09:21:27;;;;;;;56.15;35.67;;;;;;;;;;5054256;28;20025;-54
2022/10/19 09:24:08;;;;;;;54.55;35.63;;;;;;;;;;5054074;28;20470;-54
2022/10/19 09:26:54;;;;;;;48.30;34.28;;;;;;;;;;5054054;28;20025;-57
2022/10/19 09:29:20;;;;;;;49.10;33.75;;;;;;;;;;5053876;28;20029;-55
2022/10/19 09:31:46;;;;;;;51.33;34.25;;;;;;;;;;5053952;28;20032;-54
2022/10/19 09:34:23;;;;;;;50.08;33.53;;;;;;;;;;5053906;28;20040;-54
2022/10/19 09:36:55;;;;;;;51.20;34.53;;;;;;;;;;5053262;28;20020;-54
2022/10/19 09:39:21;;;;;;;46.33;35.35;;;;;;;;;;5053708;28;20143;-56
2022/10/19 09:41:53;;;;;;;53.43;35.90;;;;;;;;;;5053719;28;20029;-56
2022/10/19 09:44:19;;;;;;;53.17;37.03;;;;;;;;;;5053643;28;20045;-54
2022/10/19 09:47:02;;;;;;;44.90;33.85;;;;;;;;;;5052425;28;20033;-55
2022/10/19 09:49:40;;;;;;;57.38;35.85;;;;;;;;;;5053657;28;20032;-56
2022/10/19 09:52:21;;;;;;;47.83;34.85;;;;;;;;;;5053536;28;20126;-54
2022/10/19 09:54:50;;;;;;;52.35;34.05;;;;;;;;;;5052290;28;20052;-54
2022/10/19 09:57:22;;;;;;;52.72;33.95;;;;;;;;;;5053564;28;20029;-55
2022/10/19 09:59:53;;;;;;;43.88;30.20;;;;;;;;;;5053294;28;20021;-57
2022/10/19 10:02:21;;;;;;;53.22;32.58;;;;;;;;;;5052151;28;20511;-54
2022/10/19 10:04:55;;;;;;;48.80;31.48;;;;;;;;;;5053184;28;20021;-55
2022/10/19 10:07:24;;;;;;;40.20;29.00;;;;;;;;;;5053368;28;20057;-56
2022/10/19 10:09:51;;;;;;;43.25;30.63;;;;;;;;;;5053062;28;20036;-54
2022/10/19 10:12:17;;;;;;;45.10;31.70;;;;;;;;;;5052381;28;20083;-55
2022/10/19 10:14:44;;;;;;;47.00;29.17;;;;;;;;;;5053129;28;20439;-55
2022/10/19 10:17:20;;;;;;;40.20;28.65;;;;;;;;;;5041398;28;20083;-56
2022/10/19 10:19:59;;;;;;;49.25;29.80;;;;;;;;;;5031796;28;20029;-57
2022/10/19 10:22:26;;;;;;;38.25;28.35;;;;;;;;;;5045869;28;20031;-58
2022/10/19 10:24:54;;;;;;;44.38;30.25;;;;;;;;;;5052883;28;20032;-56
2022/10/19 10:27:31;;;;;;;36.50;28.02;;;;;;;;;;5052915;28;20055;-56
2022/10/19 10:29:58;;;;;;;41.78;28.35;;;;;;;;;;5052752;28;20029;-55
2022/10/19 10:32:24;;;;;;;40.78;27.95;;;;;;;;;;5052806;28;20393;-56
2022/10/19 10:34:56;;;;;;;42.57;28.63;;;;;;;;;;5052694;28;20028;-57
2022/10/19 10:37:30;;;;;;;38.88;27.52;;;;;;;;;;5052866;28;20255;-56
2022/10/19 10:39:57;;;;;;;39.80;28.55;;;;;;;;;;5050552;28;20029;-54
2022/10/19 10:42:43;;;;;;;41.38;27.67;;;;;;;;;;5048611;28;20036;-57
2022/10/19 10:45:16;;;;;;;46.05;29.98;;;;;;;;;;5051636;28;20032;-57
2022/10/19 10:47:47;;;;;;;54.17;30.35;;;;;;;;;;5051121;28;20056;-53
2022/10/19 10:50:16;;;;;;;38.63;29.58;;;;;;;;;;5052288;28;20033;-57
2022/10/19 10:52:55;;;;;;;40.40;28.85;;;;;;;;;;5051395;28;20036;-57
2022/10/19 10:55:21;;;;;;;40.60;30.17;;;;;;;;;;5044048;28;20111;-54
2022/10/19 10:57:49;;;;;;;54.42;30.75;;;;;;;;;;5047594;28;20555;-54
2022/10/19 11:00:25;;;;;;;45.13;28.40;;;;;;;;;;5051724;28;20552;-58
2022/10/19 11:02:52;;;;;;;39.65;28.55;;;;;;;;;;5044030;28;20028;-57
2022/10/19 11:05:26;;;;;;;41.80;29.98;;;;;;;;;;5042764;28;20037;-55
2022/10/19 11:08:21;;;;;;;38.22;27.80;;;;;;;;;;5032684;28;20532;-55
2022/10/19 11:10:51;;;;;;;41.92;30.55;;;;;;;;;;5015889;28;20045;-54
2022/10/19 11:13:22;;;;;;;39.63;28.27;;;;;;;;;;5050951;28;20060;-56
2022/10/19 11:15:52;;;;;;;46.47;31.95;;;;;;;;;;5051404;28;20397;-56
2022/10/19 11:18:18;;;;;;;42.30;31.45;;;;;;;;;;5051690;28;20025;-55
2022/10/19 11:20:51;;;;;;;47.67;31.65;;;;;;;;;;5052382;28;20029;-55
2022/10/19 11:23:30;;;;;;;49.63;32.70;;;;;;;;;;5050025;28;20036;-54
2022/10/19 11:26:08;;;;;;;50.15;33.10;;;;;;;;;;5051196;28;20028;-55
2022/10/19 11:28:34;;;;;;;;;;;;;;;;;;5049723;28;20033;-56
2022/10/19 11:31:03;;;;;;;49.33;33.70;;;;;;;;;;5051701;28;20327;-57
2022/10/19 11:33:32;;;;;;;47.08;34.47;;;;;;;;;;5051767;28;20052;-57
2022/10/19 11:35:59;;;;;;;52.35;33.83;;;;;;;;;;5051330;28;20115;-58
2022/10/19 11:38:25;;;;;;;;;;;;;;;;;;5051922;28;20025;-54
2022/10/19 11:41:06;;;;;;;45.22;33.97;;;;;;;;;;5051316;28;19909;-57
2022/10/19 11:43:51;;;;;;;49.38;35.35;;;;;;;;;;5051217;28;20547;-55
2022/10/19 11:46:21;;;;;;;59.33;37.17;;;;;;;;;;5051394;28;20029;-55
2022/10/19 11:48:49;;;;;;;53.15;36.15;;;;;;;;;;5050732;28;20025;-54
2022/10/19 11:51:36;;;;;;;47.03;35.67;;;;;;;;;;5051310;28;20037;-54
2022/10/19 11:54:05;;;;;;;46.05;35.15;;;;;;;;;;5050871;28;20122;-55
2022/10/19 11:56:31;;;;;;;50.63;35.22;;;;;;;;;;5051437;28;20069;-55
2022/10/19 11:59:16;;;;;;;45.47;33.17;;;;;;;;;;5051042;28;20500;-54
2022/10/19 12:01:47;;;;;;;49.78;34.28;;;23.10;69.30;;;;;;5055632;28;20037;-54
2022/10/19 12:04:22;;;;;;;47.78;33.92;;;23.90;66.60;;;;;;5055291;28;20036;-54
2022/10/19 12:06:55;;;;;;;45.00;33.75;;;;;;;;;;5048512;28;20032;-54
2022/10/19 12:09:30;;;;;;;47.30;33.92;;;;;;;;;;5055108;28;20039;-57
2022/10/19 12:12:05;;;;;;;52.25;34.53;;;;;;;;;;5055278;28;20111;-55
2022/10/19 12:14:33;;;;;;;47.55;32.92;;;;;;;;;;5055283;28;20509;-54
2022/10/19 12:17:04;;;;;;;62.17;34.47;;;;;;;;;;5053723;28;20029;-54
2022/10/19 12:19:38;;;;;;;56.60;37.00;;;;;;;;;;5055051;28;20497;-54
2022/10/19 12:22:06;;;;;;;52.90;36.33;;;;;;;;;;5055052;28;20397;-54
2022/10/19 12:24:33;;;;;;;48.72;32.50;;;;;;;;;;5054796;28;20036;-56
2022/10/19 12:26:59;;;;;;;49.47;34.15;;;;;;;;;;5055201;28;20033;-56
2022/10/19 12:29:30;;;;;;;50.95;35.65;;;24.00;66.00;;;;;;5054844;28;20029;-54
2022/10/19 12:31:57;;;;;;;50.20;34.97;;;;;;;;;;5053483;28;20393;-54
2022/10/19 12:34:23;;;;;;;;;;;;;;;;;;5055434;28;20440;-57
2022/10/19 12:36:55;;;;;;;42.85;30.92;;;;;;;;;;5054307;28;19961;-58
2022/10/19 12:39:38;;;;;;;45.70;32.72;;;;;;;;;;5048771;28;20029;-55
2022/10/19 12:42:09;;;;;;;44.20;31.00;;;;;;;;;;5053332;28;20409;-54
2022/10/19 12:44:36;;;;;;;45.35;31.35;;;;;;;;;;5054055;28;20033;-56
2022/10/19 12:47:15;;;;;;;43.22;30.10;;;;;;;;;;5053746;28;20029;-55
2022/10/19 12:49:46;;;;;;;42.50;29.17;;;;;;;;;;5054350;28;20067;-56
2022/10/19 12:52:13;;;;;;;44.28;30.55;;;;;;;;;;5054858;28;20061;-54
2022/10/19 12:54:40;;;;;;;40.63;30.27;;;;;;;;;;5054963;28;20474;-54
2022/10/19 12:57:38;;;;;;;41.05;30.27;;;;;;;;;;5054483;28;20028;-57
2022/10/19 13:00:04;;;;;;;;;;;;;;;;;;5038874;28;20037;-54
2022/10/19 13:02:35;;;;;;;44.65;31.42;;;;;;;;;;5036799;28;19905;-56
2022/10/19 13:05:01;;;;;;;41.72;31.25;;;;;;;;;;5053572;28;20112;-56
2022/10/19 13:07:35;;;;;;;42.00;31.58;;;;;;;;;;5052399;28;20032;-54
2022/10/19 13:10:17;;;;;;;46.15;31.27;;;25.00;62.50;;;;;;5053658;28;20036;-54
2022/10/19 13:12:46;;;;;;;40.38;29.58;;;26.80;57.00;;;;;;5052689;28;20033;-54
2022/10/19 13:15:30;;;;;;;41.38;30.13;;;;;;;;;;5051053;28;20024;-57
2022/10/19 13:17:56;;;;;;;37.22;28.70;;;;;;;;;;5047299;28;20029;-54
2022/10/19 13:20:24;;;;;;;36.22;29.73;;;;;;;;;;5052448;28;20413;-54
2022/10/19 13:22:51;;;;;;;44.08;29.05;;;;;;;;;;5053449;28;20029;-57
2022/10/19 13:25:29;;;;;;;35.50;27.20;;;;;;;;;;5053787;28;20170;-54
2022/10/19 13:27:56;;;;;;;46.35;31.52;;;;;;;;;;5053870;28;20037;-57
2022/10/19 13:30:37;;;;;;;40.53;29.92;;;;;;;;;;5053841;28;20029;-55
2022/10/19 13:33:28;;;;;;;40.60;30.90;;;;;;;;;;5052524;28;20036;-55
2022/10/19 13:36:01;;;;;;;42.60;30.95;;;;;;;;;;5051916;28;20124;-57
2022/10/19 13:38:30;;;;;;;47.47;30.80;;;;;;;;;;5053373;28;20098;-55
2022/10/19 13:41:08;;;;;;;38.35;30.05;;;;;;;;;;5053261;28;20580;-52
2022/10/19 13:43:37;;;;;;;40.83;31.02;;;;;;;;;;5044607;28;20086;-59
2022/10/19 13:46:22;;;;;;;44.35;31.88;;;;;;;;;;5051738;28;20028;-57
2022/10/19 13:49:06;;;;;;;39.97;31.17;;;;;;;;;;5045844;28;20036;-57
2022/10/19 13:51:58;;;;;;;44.03;30.80;;;;;;;;;;5038661;28;20025;-52
2022/10/19 13:54:40;;;;;;;45.50;31.67;;;;;;;;;;5045653;28;20028;-53
2022/10/19 13:57:15;;;;;;;44.50;32.47;;;;;;;;;;5041525;28;20029;-53
2022/10/19 14:00:02;;;;;;;42.53;30.27;;;;;;;;;;5046252;28;20025;-53
2022/10/19 14:02:49;;;;;;;41.90;32.13;;;;;;;;;;5039114;28;20029;-52
2022/10/19 14:05:27;;;;;;;42.67;31.40;;;;;;;;;;5046418;28;20028;-52
2022/10/19 14:07:53;;;;;;;38.50;29.30;;;;;;;;;;5044469;28;20044;-52
2022/10/19 14:10:20;;;;;;;46.03;30.60;;;;;;;;;;5041031;28;20500;-52
2022/10/19 14:12:47;;;;;;;41.30;30.88;;;;;;;;;;5051559;28;20025;-53
2022/10/19 14:15:26;;;;;;;44.30;31.27;;;;;;;;;;5052495;28;20027;-54
2022/10/19 14:17:53;;;;;;;42.22;30.65;;;;;;;;;;5053112;28;20238;-53
2022/10/19 14:20:29;;;;;;;41.95;31.85;;;;;;;;;;5052943;28;20021;-53
2022/10/19 14:22:56;;;;;;;43.08;31.83;;;;;;;;;;5052900;28;20029;-53
2022/10/19 14:25:26;;;;;;;42.33;30.02;;;29.00;48.60;;;;;;5052849;28;20397;-53
2022/10/19 14:28:03;;;;;;;38.25;28.83;;;28.90;49.20;;;;;;5053012;28;20045;-53
2022/10/19 14:30:32;;;;;;;44.00;30.42;;;28.70;48.90;;;;;;5052808;28;20037;-57